sensor_id;sensor_type;location;lat;lon;timestamp;pressure;altitude;pressure_sealevel;temperature;humidity
59757;BME280;45631;51.962;5.974;2023-06-24T00:00:24;102278.66;;;18.70;100.00
59757;BME280;45631;51.962;5.974;2023-06-24T00:02:53;102276.47;;;18.64;100.00
59757;BME280;45631;51.962;5.974;2023-06-24T00:05:21;102281.22;;;18.72;100.00
59757;BME280;45631;51.962;5.974;2023-06-24T00:07:49;102272.94;;;18.64;100.00
59757;BME280;45631;51.962;5.974;2023-06-24T00:10:19;102273.81;;;18.64;100.00
59757;BME280;45631;51.962;5.974;2023-06-24T00:12:47;102263.41;;;18.61;100.00
59757;BME280;45631;51.962;5.974;2023-06-24T00:15:15;102267.88;;;18.61;100.00
59757;BME280;45631;51.962;5.974;2023-06-24T00:17:44;102268.94;;;18.58;100.00
59757;BME280;45631;51.962;5.974;2023-06-24T00:20:13;102274.06;;;18.61;100.00
59757;BME280;45631;51.962;5.974;2023-06-24T00:22:41;102276.81;;;18.59;100.00
59757;BME280;45631;51.962;5.974;2023-06-24T00:25:11;102274.50;;;18.55;100.00
59757;BME280;45631;51.962;5.974;2023-06-24T00:27:41;102280.09;;;18.52;100.00
59757;BME280;45631;51.962;5.974;2023-06-24T00:30:13;102277.53;;;18.50;100.00
59757;BME280;45631;51.962;5.974;2023-06-24T00:32:41;102277.41;;;18.52;100.00
59757;BME280;45631;51.962;5.974;2023-06-24T00:35:09;102290.13;;;18.48;100.00
59757;BME280;45631;51.962;5.974;2023-06-24T00:37:39;102278.63;;;18.48;100.00
59757;BME280;45631;51.962;5.974;2023-06-24T00:40:08;102285.91;;;18.57;100.00
59757;BME280;45631;51.962;5.974;2023-06-24T00:42:38;102280.34;;;18.60;100.00
59757;BME280;45631;51.962;5.974;2023-06-24T00:45:09;102277.94;;;18.57;100.00
59757;BME280;45631;51.962;5.974;2023-06-24T00:47:37;102284.34;;;18.54;100.00
59757;BME280;45631;51.962;5.974;2023-06-24T00:50:06;102267.72;;;18.51;100.00
59757;BME280;45631;51.962;5.974;2023-06-24T00:52:35;102282.13;;;18.48;100.00
59757;BME280;45631;51.962;5.974;2023-06-24T00:55:06;102281.16;;;18.49;100.00
59757;BME280;45631;51.962;5.974;2023-06-24T00:57:34;102278.75;;;18.57;100.00
59757;BME280;45631;51.962;5.974;2023-06-24T01:00:07;102287.72;;;18.56;100.00
59757;BME280;45631;51.962;5.974;2023-06-24T01:02:44;102282.50;;;18.55;100.00
59757;BME280;45631;51.962;5.974;2023-06-24T01:05:14;102279.00;;;18.54;100.00
59757;BME280;45631;51.962;5.974;2023-06-24T01:07:43;102272.34;;;18.60;100.00
59757;BME280;45631;51.962;5.974;2023-06-24T01:10:11;102267.03;;;18.60;100.00
59757;BME280;45631;51.962;5.974;2023-06-24T01:12:41;102269.56;;;18.62;100.00
59757;BME280;45631;51.962;5.974;2023-06-24T01:15:12;102269.56;;;18.62;100.00
59757;BME280;45631;51.962;5.974;2023-06-24T01:17:44;102261.09;;;18.68;100.00
59757;BME280;45631;51.962;5.974;2023-06-24T01:20:21;102260.75;;;18.72;100.00
59757;BME280;45631;51.962;5.974;2023-06-24T01:29:25;102268.47;;;18.64;100.00
59757;BME280;45631;51.962;5.974;2023-06-24T01:32:06;102266.06;;;18.61;100.00
59757;BME280;45631;51.962;5.974;2023-06-24T01:34:41;102265.69;;;18.54;100.00
59757;BME280;45631;51.962;5.974;2023-06-24T01:37:16;102258.03;;;18.50;100.00
59757;BME280;45631;51.962;5.974;2023-06-24T01:39:47;102260.81;;;18.59;100.00
59757;BME280;45631;51.962;5.974;2023-06-24T01:42:18;102258.28;;;18.58;100.00
59757;BME280;45631;51.962;5.974;2023-06-24T01:44:48;102259.38;;;18.55;100.00
59757;BME280;45631;51.962;5.974;2023-06-24T01:47:21;102251.88;;;18.49;100.00
59757;BME280;45631;51.962;5.974;2023-06-24T01:49:53;102254.78;;;18.46;100.00
59757;BME280;45631;51.962;5.974;2023-06-24T01:52:23;102257.06;;;18.39;100.00
59757;BME280;45631;51.962;5.974;2023-06-24T01:54:55;102258.38;;;18.34;100.00
59757;BME280;45631;51.962;5.974;2023-06-24T01:57:24;102260.41;;;18.30;100.00
59757;BME280;45631;51.962;5.974;2023-06-24T01:59:55;102270.56;;;18.01;100.00
59757;BME280;45631;51.962;5.974;2023-06-24T02:02:26;102274.44;;;17.97;100.00
59757;BME280;45631;51.962;5.974;2023-06-24T02:04:56;102272.84;;;17.94;100.00
59757;BME280;45631;51.962;5.974;2023-06-24T02:07:28;102265.13;;;18.02;100.00
59757;BME280;45631;51.962;5.974;2023-06-24T02:09:58;102268.50;;;17.93;100.00
59757;BME280;45631;51.962;5.974;2023-06-24T02:12:28;102262.41;;;17.91;100.00
59757;BME280;45631;51.962;5.974;2023-06-24T02:14:57;102264.84;;;17.94;100.00
59757;BME280;45631;51.962;5.974;2023-06-24T02:17:28;102262.00;;;17.97;100.00
59757;BME280;45631;51.962;5.974;2023-06-24T02:19:57;102265.59;;;17.96;100.00
59757;BME280;45631;51.962;5.974;2023-06-24T02:22:25;102264.66;;;17.97;100.00
59757;BME280;45631;51.962;5.974;2023-06-24T02:24:55;102259.53;;;17.94;100.00
59757;BME280;45631;51.962;5.974;2023-06-24T02:27:24;102255.47;;;17.88;100.00
59757;BME280;45631;51.962;5.974;2023-06-24T02:29:52;102258.03;;;17.90;100.00
59757;BME280;45631;51.962;5.974;2023-06-24T02:32:22;102266.00;;;17.90;100.00
59757;BME280;45631;51.962;5.974;2023-06-24T02:34:51;102259.34;;;17.84;100.00
59757;BME280;45631;51.962;5.974;2023-06-24T02:37:19;102259.34;;;17.84;100.00
59757;BME280;45631;51.962;5.974;2023-06-24T02:39:48;102259.97;;;17.88;100.00
59757;BME280;45631;51.962;5.974;2023-06-24T02:42:16;102246.97;;;17.96;100.00
59757;BME280;45631;51.962;5.974;2023-06-24T02:44:44;102244.25;;;17.85;100.00
59757;BME280;45631;51.962;5.974;2023-06-24T02:47:14;102235.19;;;17.87;100.00
59757;BME280;45631;51.962;5.974;2023-06-24T02:49:45;102235.06;;;17.89;100.00
59757;BME280;45631;51.962;5.974;2023-06-24T02:52:15;102249.75;;;17.82;100.00
59757;BME280;45631;51.962;5.974;2023-06-24T02:54:44;102240.53;;;17.74;100.00
59757;BME280;45631;51.962;5.974;2023-06-24T02:57:13;102248.66;;;17.73;100.00
59757;BME280;45631;51.962;5.974;2023-06-24T02:59:42;102245.03;;;17.74;100.00
59757;BME280;45631;51.962;5.974;2023-06-24T03:02:11;102243.22;;;17.74;100.00
59757;BME280;45631;51.962;5.974;2023-06-24T03:04:40;102253.34;;;17.69;100.00
59757;BME280;45631;51.962;5.974;2023-06-24T03:07:08;102250.91;;;17.66;100.00
59757;BME280;45631;51.962;5.974;2023-06-24T03:09:39;102263.56;;;17.63;100.00
59757;BME280;45631;51.962;5.974;2023-06-24T03:12:08;102258.16;;;17.64;100.00
59757;BME280;45631;51.962;5.974;2023-06-24T03:14:36;102261.69;;;17.52;100.00
59757;BME280;45631;51.962;5.974;2023-06-24T03:17:05;102260.00;;;17.51;100.00
59757;BME280;45631;51.962;5.974;2023-06-24T03:19:33;102257.34;;;17.51;100.00
59757;BME280;45631;51.962;5.974;2023-06-24T03:22:01;102257.34;;;17.51;100.00
59757;BME280;45631;51.962;5.974;2023-06-24T03:24:30;102256.00;;;17.45;100.00
59757;BME280;45631;51.962;5.974;2023-06-24T03:27:02;102254.56;;;17.52;100.00
59757;BME280;45631;51.962;5.974;2023-06-24T03:29:31;102251.50;;;17.46;100.00
59757;BME280;45631;51.962;5.974;2023-06-24T03:31:59;102253.72;;;17.52;100.00
59757;BME280;45631;51.962;5.974;2023-06-24T03:34:27;102249.06;;;17.43;100.00
59757;BME280;45631;51.962;5.974;2023-06-24T03:36:55;102259.41;;;17.34;100.00
59757;BME280;45631;51.962;5.974;2023-06-24T03:39:24;102248.44;;;17.39;100.00
59757;BME280;45631;51.962;5.974;2023-06-24T03:41:52;102252.69;;;17.42;100.00
59757;BME280;45631;51.962;5.974;2023-06-24T03:44:22;102251.75;;;17.43;100.00
59757;BME280;45631;51.962;5.974;2023-06-24T03:46:50;102253.53;;;17.42;100.00
59757;BME280;45631;51.962;5.974;2023-06-24T03:49:18;102257.25;;;17.39;100.00
59757;BME280;45631;51.962;5.974;2023-06-24T03:51:46;102261.78;;;17.26;100.00
59757;BME280;45631;51.962;5.974;2023-06-24T03:54:14;102256.97;;;17.31;100.00
59757;BME280;45631;51.962;5.974;2023-06-24T03:56:42;102258.66;;;17.32;100.00
59757;BME280;45631;51.962;5.974;2023-06-24T03:59:11;102261.00;;;17.37;100.00
59757;BME280;45631;51.962;5.974;2023-06-24T04:01:40;102258.66;;;17.32;100.00
59757;BME280;45631;51.962;5.974;2023-06-24T04:04:09;102259.50;;;17.33;100.00
59757;BME280;45631;51.962;5.974;2023-06-24T04:06:37;102256.75;;;17.34;100.00
59757;BME280;45631;51.962;5.974;2023-06-24T04:09:05;102261.84;;;17.37;100.00
59757;BME280;45631;51.962;5.974;2023-06-24T04:11:35;102263.56;;;17.38;100.00
59757;BME280;45631;51.962;5.974;2023-06-24T04:14:03;102263.66;;;17.37;100.00
59757;BME280;45631;51.962;5.974;2023-06-24T04:16:33;102265.22;;;17.39;100.00
59757;BME280;45631;51.962;5.974;2023-06-24T04:19:03;102256.31;;;17.40;100.00
59757;BME280;45631;51.962;5.974;2023-06-24T04:21:31;102260.44;;;17.45;100.00
59757;BME280;45631;51.962;5.974;2023-06-24T04:23:59;102259.91;;;17.39;100.00
59757;BME280;45631;51.962;5.974;2023-06-24T04:26:27;102258.97;;;17.40;100.00
59757;BME280;45631;51.962;5.974;2023-06-24T04:28:55;102261.19;;;17.47;100.00
59757;BME280;45631;51.962;5.974;2023-06-24T04:31:23;102256.31;;;17.40;100.00
59757;BME280;45631;51.962;5.974;2023-06-24T04:33:52;102261.50;;;17.42;100.00
59757;BME280;45631;51.962;5.974;2023-06-24T04:36:21;102262.16;;;17.46;100.00
59757;BME280;45631;51.962;5.974;2023-06-24T04:38:50;102264.47;;;17.50;100.00
59757;BME280;45631;51.962;5.974;2023-06-24T04:41:18;102251.81;;;17.54;100.00
59757;BME280;45631;51.962;5.974;2023-06-24T04:43:49;102265.81;;;17.56;100.00
59757;BME280;45631;51.962;5.974;2023-06-24T04:46:17;102263.47;;;17.64;100.00
59757;BME280;45631;51.962;5.974;2023-06-24T04:48:46;102269.09;;;17.72;100.00
59757;BME280;45631;51.962;5.974;2023-06-24T04:51:14;102268.56;;;17.67;100.00
59757;BME280;45631;51.962;5.974;2023-06-24T04:53:44;102271.00;;;17.70;100.00
59757;BME280;45631;51.962;5.974;2023-06-24T04:56:12;102272.59;;;17.73;100.00
59757;BME280;45631;51.962;5.974;2023-06-24T04:58:40;102276.84;;;17.76;100.00
59757;BME280;45631;51.962;5.974;2023-06-24T05:01:08;102275.94;;;17.88;100.00
59757;BME280;45631;51.962;5.974;2023-06-24T05:03:36;102266.78;;;17.92;100.00
59757;BME280;45631;51.962;5.974;2023-06-24T05:06:04;102272.75;;;17.96;100.00
59757;BME280;45631;51.962;5.974;2023-06-24T05:08:33;102262.19;;;17.94;100.00
59757;BME280;45631;51.962;5.974;2023-06-24T05:11:02;102263.56;;;18.00;100.00
59757;BME280;45631;51.962;5.974;2023-06-24T05:13:30;102259.81;;;18.02;100.00
59757;BME280;45631;51.962;5.974;2023-06-24T05:15:58;102258.41;;;18.10;100.00
59757;BME280;45631;51.962;5.974;2023-06-24T05:18:29;102255.06;;;18.19;100.00
59757;BME280;45631;51.962;5.974;2023-06-24T05:20:58;102258.00;;;18.27;100.00
59757;BME280;45631;51.962;5.974;2023-06-24T05:23:26;102262.72;;;18.35;100.00
59757;BME280;45631;51.962;5.974;2023-06-24T05:25:54;102266.00;;;18.38;100.00
59757;BME280;45631;51.962;5.974;2023-06-24T05:28:26;102262.97;;;18.43;100.00
59757;BME280;45631;51.962;5.974;2023-06-24T05:30:54;102266.03;;;18.50;100.00
59757;BME280;45631;51.962;5.974;2023-06-24T05:33:22;102277.06;;;18.56;100.00
59757;BME280;45631;51.962;5.974;2023-06-24T05:35:50;102277.31;;;18.65;100.00
59757;BME280;45631;51.962;5.974;2023-06-24T05:38:18;102280.34;;;18.71;100.00
59757;BME280;45631;51.962;5.974;2023-06-24T05:40:47;102281.56;;;18.79;100.00
59757;BME280;45631;51.962;5.974;2023-06-24T05:43:15;102286.22;;;18.88;100.00
59757;BME280;45631;51.962;5.974;2023-06-24T05:45:44;102288.19;;;18.97;100.00
59757;BME280;45631;51.962;5.974;2023-06-24T05:48:15;102284.19;;;19.03;100.00
59757;BME280;45631;51.962;5.974;2023-06-24T05:50:43;102283.59;;;19.11;100.00
59757;BME280;45631;51.962;5.974;2023-06-24T05:53:14;102285.28;;;19.23;100.00
59757;BME280;45631;51.962;5.974;2023-06-24T05:55:42;102283.47;;;19.35;100.00
59757;BME280;45631;51.962;5.974;2023-06-24T05:58:10;102287.19;;;19.43;100.00
59757;BME280;45631;51.962;5.974;2023-06-24T06:00:38;102287.28;;;19.53;100.00
59757;BME280;45631;51.962;5.974;2023-06-24T06:03:08;102299.19;;;19.61;100.00
59757;BME280;45631;51.962;5.974;2023-06-24T06:05:37;102297.59;;;19.69;100.00
59757;BME280;45631;51.962;5.974;2023-06-24T06:08:05;102302.91;;;19.81;100.00
59757;BME280;45631;51.962;5.974;2023-06-24T06:10:33;102304.84;;;19.90;100.00
59757;BME280;45631;51.962;5.974;2023-06-24T06:13:01;102301.28;;;20.01;100.00
59757;BME280;45631;51.962;5.974;2023-06-24T06:15:30;102307.31;;;20.14;100.00
59757;BME280;45631;51.962;5.974;2023-06-24T06:17:58;102310.91;;;20.24;100.00
59757;BME280;45631;51.962;5.974;2023-06-24T06:20:28;102293.84;;;20.37;100.00
59757;BME280;45631;51.962;5.974;2023-06-24T06:22:56;102296.94;;;20.53;100.00
59757;BME280;45631;51.962;5.974;2023-06-24T06:25:24;102300.91;;;20.59;100.00
59757;BME280;45631;51.962;5.974;2023-06-24T06:27:53;102300.72;;;20.72;100.00
59757;BME280;45631;51.962;5.974;2023-06-24T06:30:24;102302.59;;;20.81;100.00
59757;BME280;45631;51.962;5.974;2023-06-24T06:32:52;102300.84;;;20.91;100.00
59757;BME280;45631;51.962;5.974;2023-06-24T06:35:20;102300.34;;;21.07;100.00
59757;BME280;45631;51.962;5.974;2023-06-24T06:37:50;102298.00;;;21.24;100.00
59757;BME280;45631;51.962;5.974;2023-06-24T06:40:22;102299.59;;;21.36;100.00
59757;BME280;45631;51.962;5.974;2023-06-24T06:42:54;102293.16;;;21.49;100.00
59757;BME280;45631;51.962;5.974;2023-06-24T06:45:22;102297.19;;;21.64;100.00
59757;BME280;45631;51.962;5.974;2023-06-24T06:47:50;102303.81;;;21.80;100.00
59757;BME280;45631;51.962;5.974;2023-06-24T06:50:18;102300.03;;;21.92;100.00
59757;BME280;45631;51.962;5.974;2023-06-24T06:52:47;102298.22;;;22.02;100.00
59757;BME280;45631;51.962;5.974;2023-06-24T06:55:16;102306.53;;;22.19;100.00
59757;BME280;45631;51.962;5.974;2023-06-24T06:57:44;102306.53;;;22.38;100.00
59757;BME280;45631;51.962;5.974;2023-06-24T07:00:13;102307.09;;;22.52;100.00
59757;BME280;45631;51.962;5.974;2023-06-24T07:02:41;102305.78;;;22.66;100.00
59757;BME280;45631;51.962;5.974;2023-06-24T07:05:09;102305.50;;;22.78;100.00
59757;BME280;45631;51.962;5.974;2023-06-24T07:07:38;102310.69;;;22.90;100.00
59757;BME280;45631;51.962;5.974;2023-06-24T07:10:09;102305.13;;;23.01;100.00
59757;BME280;45631;51.962;5.974;2023-06-24T07:12:39;102311.84;;;23.25;100.00
59757;BME280;45631;51.962;5.974;2023-06-24T07:15:08;102320.28;;;23.30;100.00
59757;BME280;45631;51.962;5.974;2023-06-24T07:17:40;102313.75;;;23.42;100.00
59757;BME280;45631;51.962;5.974;2023-06-24T07:20:09;102316.38;;;23.52;100.00
59757;BME280;45631;51.962;5.974;2023-06-24T07:22:37;102310.94;;;23.62;100.00
59757;BME280;45631;51.962;5.974;2023-06-24T07:25:06;102316.88;;;23.84;100.00
59757;BME280;45631;51.962;5.974;2023-06-24T07:27:37;102324.81;;;24.03;100.00
59757;BME280;45631;51.962;5.974;2023-06-24T07:30:07;102321.22;;;24.12;100.00
59757;BME280;45631;51.962;5.974;2023-06-24T07:32:36;102328.81;;;24.35;100.00
59757;BME280;45631;51.962;5.974;2023-06-24T07:35:06;102328.63;;;24.55;100.00
59757;BME280;45631;51.962;5.974;2023-06-24T07:37:34;102323.00;;;24.66;100.00
59757;BME280;45631;51.962;5.974;2023-06-24T07:40:02;102324.13;;;24.82;100.00
59757;BME280;45631;51.962;5.974;2023-06-24T07:42:32;102328.47;;;24.56;100.00
59757;BME280;45631;51.962;5.974;2023-06-24T07:45:00;102326.97;;;24.80;100.00
59757;BME280;45631;51.962;5.974;2023-06-24T07:47:30;102326.00;;;24.89;100.00
59757;BME280;45631;51.962;5.974;2023-06-24T07:49:59;102324.91;;;25.00;100.00
59757;BME280;45631;51.962;5.974;2023-06-24T07:52:27;102331.38;;;25.16;100.00
59757;BME280;45631;51.962;5.974;2023-06-24T07:54:55;102321.84;;;25.29;100.00
59757;BME280;45631;51.962;5.974;2023-06-24T07:57:23;102319.44;;;25.53;100.00
59757;BME280;45631;51.962;5.974;2023-06-24T07:59:51;102319.16;;;25.72;100.00
59757;BME280;45631;51.962;5.974;2023-06-24T08:02:21;102308.41;;;25.89;100.00
59757;BME280;45631;51.962;5.974;2023-06-24T08:04:54;102310.75;;;25.92;93.85
59757;BME280;45631;51.962;5.974;2023-06-24T08:07:22;102317.81;;;25.85;91.70
59757;BME280;45631;51.962;5.974;2023-06-24T08:09:50;102309.63;;;26.11;87.52
59757;BME280;45631;51.962;5.974;2023-06-24T08:12:19;102307.44;;;26.14;87.97
59757;BME280;45631;51.962;5.974;2023-06-24T08:14:47;102301.81;;;25.83;80.87
59757;BME280;45631;51.962;5.974;2023-06-24T08:17:15;102299.53;;;26.21;82.74
59757;BME280;45631;51.962;5.974;2023-06-24T08:19:43;102296.00;;;26.29;76.23
59757;BME280;45631;51.962;5.974;2023-06-24T08:22:13;102305.09;;;26.28;74.75
59757;BME280;45631;51.962;5.974;2023-06-24T08:24:41;102297.19;;;26.18;72.18
59757;BME280;45631;51.962;5.974;2023-06-24T08:27:09;102301.84;;;26.57;74.48
59757;BME280;45631;51.962;5.974;2023-06-24T08:29:37;102291.56;;;26.77;71.33
59757;BME280;45631;51.962;5.974;2023-06-24T08:32:06;102298.25;;;26.90;71.17
59757;BME280;45631;51.962;5.974;2023-06-24T08:34:34;102284.91;;;26.96;71.57
59757;BME280;45631;51.962;5.974;2023-06-24T08:37:03;102286.31;;;26.68;69.35
59757;BME280;45631;51.962;5.974;2023-06-24T08:39:32;102290.59;;;27.10;76.05
59757;BME280;45631;51.962;5.974;2023-06-24T08:42:00;102289.66;;;27.34;68.68
59757;BME280;45631;51.962;5.974;2023-06-24T08:44:28;102292.44;;;27.57;68.72
59757;BME280;45631;51.962;5.974;2023-06-24T08:46:57;102293.03;;;27.91;67.99
59757;BME280;45631;51.962;5.974;2023-06-24T08:49:28;102287.91;;;28.04;69.45
59757;BME280;45631;51.962;5.974;2023-06-24T08:52:02;102284.72;;;27.77;63.14
59757;BME280;45631;51.962;5.974;2023-06-24T08:54:33;102292.97;;;27.76;65.65
59757;BME280;45631;51.962;5.974;2023-06-24T08:57:03;102294.72;;;27.92;68.05
59757;BME280;45631;51.962;5.974;2023-06-24T08:59:33;102288.19;;;27.86;65.15
59757;BME280;45631;51.962;5.974;2023-06-24T09:02:02;102295.28;;;28.10;60.62
59757;BME280;45631;51.962;5.974;2023-06-24T09:04:30;102288.25;;;28.01;61.05
59757;BME280;45631;51.962;5.974;2023-06-24T09:06:58;102292.19;;;28.52;58.15
59757;BME280;45631;51.962;5.974;2023-06-24T09:09:26;102296.66;;;28.82;57.36
59757;BME280;45631;51.962;5.974;2023-06-24T09:11:58;102293.84;;;29.06;55.68
59757;BME280;45631;51.962;5.974;2023-06-24T09:14:28;102291.28;;;29.34;55.18
59757;BME280;45631;51.962;5.974;2023-06-24T09:16:58;102286.94;;;29.55;53.58
59757;BME280;45631;51.962;5.974;2023-06-24T09:19:28;102286.75;;;29.78;54.93
59757;BME280;45631;51.962;5.974;2023-06-24T09:22:01;102283.06;;;30.07;57.47
59757;BME280;45631;51.962;5.974;2023-06-24T09:24:30;102274.69;;;30.02;50.68
59757;BME280;45631;51.962;5.974;2023-06-24T09:27:00;102278.44;;;30.29;50.22
59757;BME280;45631;51.962;5.974;2023-06-24T09:29:31;102281.25;;;30.14;50.98
59757;BME280;45631;51.962;5.974;2023-06-24T09:31:59;102270.19;;;30.09;51.05
59757;BME280;45631;51.962;5.974;2023-06-24T09:34:31;102270.25;;;30.23;47.87
59757;BME280;45631;51.962;5.974;2023-06-24T09:37:02;102268.16;;;30.18;48.63
59757;BME280;45631;51.962;5.974;2023-06-24T09:39:35;102260.41;;;30.15;48.92
59757;BME280;45631;51.962;5.974;2023-06-24T09:42:06;102260.50;;;30.28;49.75
59757;BME280;45631;51.962;5.974;2023-06-24T09:44:34;102257.66;;;30.08;47.74
59757;BME280;45631;51.962;5.974;2023-06-24T09:47:03;102259.56;;;30.14;45.43
59757;BME280;45631;51.962;5.974;2023-06-24T09:49:31;102260.25;;;29.95;47.75
59757;BME280;45631;51.962;5.974;2023-06-24T09:52:01;102259.13;;;30.11;46.16
59757;BME280;45631;51.962;5.974;2023-06-24T09:54:30;102252.84;;;30.10;48.64
59757;BME280;45631;51.962;5.974;2023-06-24T09:57:02;102256.22;;;30.12;48.73
59757;BME280;45631;51.962;5.974;2023-06-24T09:59:32;102260.94;;;30.32;51.02
59757;BME280;45631;51.962;5.974;2023-06-24T10:02:02;102264.16;;;30.42;48.48
59757;BME280;45631;51.962;5.974;2023-06-24T10:04:31;102259.19;;;30.46;45.89
59757;BME280;45631;51.962;5.974;2023-06-24T10:07:00;102256.00;;;30.42;48.09
59757;BME280;45631;51.962;5.974;2023-06-24T10:09:31;102252.59;;;30.62;47.48
59757;BME280;45631;51.962;5.974;2023-06-24T10:12:00;102255.09;;;30.98;47.66
59757;BME280;45631;51.962;5.974;2023-06-24T10:14:28;102263.91;;;31.07;44.36
59757;BME280;45631;51.962;5.974;2023-06-24T10:17:02;102254.16;;;31.26;48.41
59757;BME280;45631;51.962;5.974;2023-06-24T10:19:37;102253.59;;;31.44;46.25
59757;BME280;45631;51.962;5.974;2023-06-24T10:22:08;102259.50;;;31.68;47.24
59757;BME280;45631;51.962;5.974;2023-06-24T10:24:39;102252.34;;;31.47;45.37
59757;BME280;45631;51.962;5.974;2023-06-24T10:27:13;102247.81;;;31.74;47.61
59757;BME280;45631;51.962;5.974;2023-06-24T10:29:45;102246.97;;;31.87;43.46
59757;BME280;45631;51.962;5.974;2023-06-24T10:32:16;102253.88;;;31.96;43.83
59757;BME280;45631;51.962;5.974;2023-06-24T10:34:47;102256.63;;;32.16;43.15
59757;BME280;45631;51.962;5.974;2023-06-24T10:37:19;102247.41;;;31.84;43.98
59757;BME280;45631;51.962;5.974;2023-06-24T10:39:49;102244.25;;;32.14;43.11
59757;BME280;45631;51.962;5.974;2023-06-24T10:42:41;102244.44;;;32.32;41.57
59757;BME280;45631;51.962;5.974;2023-06-24T10:45:13;102239.00;;;32.19;40.67
59757;BME280;45631;51.962;5.974;2023-06-24T10:47:45;102239.00;;;32.19;42.45
59757;BME280;45631;51.962;5.974;2023-06-24T10:50:14;102237.34;;;32.11;41.77
59757;BME280;45631;51.962;5.974;2023-06-24T10:52:44;102234.81;;;32.23;42.57
59757;BME280;45631;51.962;5.974;2023-06-24T10:55:14;102238.28;;;32.64;42.55
59757;BME280;45631;51.962;5.974;2023-06-24T10:57:43;102235.22;;;32.47;42.78
59757;BME280;45631;51.962;5.974;2023-06-24T11:00:14;102235.88;;;32.35;42.90
59757;BME280;45631;51.962;5.974;2023-06-24T11:02:44;102233.03;;;32.69;43.29
59757;BME280;45631;51.962;5.974;2023-06-24T11:05:13;102224.59;;;32.91;39.81
59757;BME280;45631;51.962;5.974;2023-06-24T11:07:41;102236.19;;;33.18;40.84
59757;BME280;45631;51.962;5.974;2023-06-24T11:10:11;102212.91;;;33.22;41.38
59757;BME280;45631;51.962;5.974;2023-06-24T11:12:41;102215.97;;;33.39;42.46
59757;BME280;45631;51.962;5.974;2023-06-24T11:15:11;102223.75;;;33.35;41.70
59757;BME280;45631;51.962;5.974;2023-06-24T11:17:40;102219.03;;;33.49;39.63
59757;BME280;45631;51.962;5.974;2023-06-24T11:20:11;102223.53;;;33.37;39.36
59757;BME280;45631;51.962;5.974;2023-06-24T11:22:41;102211.63;;;33.57;39.51
59757;BME280;45631;51.962;5.974;2023-06-24T11:25:14;102214.09;;;33.65;40.56
59757;BME280;45631;51.962;5.974;2023-06-24T11:27:43;102216.41;;;33.68;42.61
59757;BME280;45631;51.962;5.974;2023-06-24T11:30:13;102210.38;;;34.10;39.02
59757;BME280;45631;51.962;5.974;2023-06-24T11:32:42;102208.09;;;33.81;39.42
59757;BME280;45631;51.962;5.974;2023-06-24T11:35:13;102211.28;;;33.78;41.56
59757;BME280;45631;51.962;5.974;2023-06-24T11:37:43;102207.19;;;33.62;38.04
59757;BME280;45631;51.962;5.974;2023-06-24T11:40:18;102210.19;;;33.29;39.44
59757;BME280;45631;51.962;5.974;2023-06-24T11:42:48;102196.22;;;33.44;39.46
59757;BME280;45631;51.962;5.974;2023-06-24T11:45:20;102201.84;;;33.74;37.96
59757;BME280;45631;51.962;5.974;2023-06-24T11:47:48;102195.34;;;33.75;39.38
59757;BME280;45631;51.962;5.974;2023-06-24T11:50:18;102192.78;;;34.06;41.62
59757;BME280;45631;51.962;5.974;2023-06-24T11:52:54;102191.47;;;33.90;39.44
59757;BME280;45631;51.962;5.974;2023-06-24T11:55:25;102192.19;;;34.22;39.07
59757;BME280;45631;51.962;5.974;2023-06-24T11:57:56;102185.00;;;34.46;40.85
59757;BME280;45631;51.962;5.974;2023-06-24T12:00:26;102193.50;;;34.57;38.83
59757;BME280;45631;51.962;5.974;2023-06-24T12:02:57;102186.22;;;34.69;36.34
59757;BME280;45631;51.962;5.974;2023-06-24T12:05:28;102178.47;;;34.84;35.91
59757;BME280;45631;51.962;5.974;2023-06-24T12:08:00;102181.78;;;35.17;38.59
59757;BME280;45631;51.962;5.974;2023-06-24T12:10:29;102176.94;;;34.89;36.67
59757;BME280;45631;51.962;5.974;2023-06-24T12:13:00;102170.47;;;35.13;38.37
59757;BME280;45631;51.962;5.974;2023-06-24T12:15:29;102175.81;;;35.08;34.13
59757;BME280;45631;51.962;5.974;2023-06-24T12:17:57;102176.38;;;34.98;37.81
59757;BME280;45631;51.962;5.974;2023-06-24T12:20:26;102175.47;;;35.16;39.53
59757;BME280;45631;51.962;5.974;2023-06-24T12:22:58;102170.34;;;35.39;35.76
59757;BME280;45631;51.962;5.974;2023-06-24T12:25:26;102169.81;;;35.30;37.16
59757;BME280;45631;51.962;5.974;2023-06-24T12:27:55;102164.94;;;34.90;37.30
59757;BME280;45631;51.962;5.974;2023-06-24T12:30:23;102164.22;;;35.25;38.83
59757;BME280;45631;51.962;5.974;2023-06-24T12:32:54;102161.66;;;35.42;37.97
59757;BME280;45631;51.962;5.974;2023-06-24T12:35:22;102162.38;;;35.49;37.62
59757;BME280;45631;51.962;5.974;2023-06-24T12:37:54;102162.88;;;35.58;37.80
59757;BME280;45631;51.962;5.974;2023-06-24T12:40:22;102164.56;;;35.94;37.92
59757;BME280;45631;51.962;5.974;2023-06-24T12:42:50;102166.69;;;35.92;36.34
59757;BME280;45631;51.962;5.974;2023-06-24T12:45:18;102162.97;;;36.22;35.25
59757;BME280;45631;51.962;5.974;2023-06-24T12:47:46;102166.06;;;36.26;36.03
59757;BME280;45631;51.962;5.974;2023-06-24T12:50:14;102154.56;;;35.88;34.49
59757;BME280;45631;51.962;5.974;2023-06-24T12:52:43;102163.09;;;35.56;35.63
59757;BME280;45631;51.962;5.974;2023-06-24T12:55:12;102156.94;;;35.84;36.38
59757;BME280;45631;51.962;5.974;2023-06-24T12:57:43;102149.22;;;35.93;36.88
59757;BME280;45631;51.962;5.974;2023-06-24T13:00:12;102155.88;;;36.09;36.77